Little Falls, New Jersey
Current Conditions -  °F | °C
As of 5:53 AM on Wednesday 26 Nov 2014 (Local Time) from KCDW Reporting Station
Overcast Overcast  
Wind Chill: 41°   Ceiling: 7000
Heat Index: 44°   Visibility: 10mi
Dew Point: 29°   Wind: 6mph
Humidity: 55%   Direction: NA
Pressure: 30.13"   Gusts: NA
Location:  40.88°N, 74.23°W
Report Text: KCDW 261053Z AUTO VRB05KT 10SM OVC070 07/M02 A3013 RMK AO2 RAE0954 SLP209 P0000 T00671017 TSNO
Loading
Personal Weather Stations






























Interactive Weather Map New forecast layout! Learn more

10-Day Weather Forecast

Advertisements
Track Severe Weather on mobile